createdAt,value
2023-10-06T00:02:29.954Z,60816.59
2023-10-06T00:04:59.525Z,60820.78
2023-10-06T00:07:28.268Z,60810.88
2023-10-06T00:09:56.711Z,60822.84
2023-10-06T00:12:27.707Z,60821.19
2023-10-06T00:14:59.247Z,60820.13
2023-10-06T00:17:34.793Z,60822.28
2023-10-06T00:20:22.598Z,60814.41
2023-10-06T00:22:51.387Z,60813.88
2023-10-06T00:25:29.040Z,60813.88
2023-10-06T00:28:01.774Z,60813.88
2023-10-06T00:30:30.113Z,60817.53
2023-10-06T00:33:06.539Z,60817.53
2023-10-06T00:35:36.652Z,60816.44
2023-10-06T00:38:14.016Z,60817.94
2023-10-06T00:40:46.626Z,60824.88
2023-10-06T00:43:22.130Z,60817.13
2023-10-06T00:45:50.561Z,60826.66
2023-10-06T00:48:18.981Z,60822.97
2023-10-06T00:50:49.754Z,60826.38
2023-10-06T00:53:21.736Z,60828.44
2023-10-06T00:55:50.298Z,60832.09
2023-10-06T00:58:20.492Z,60832.09
2023-10-06T01:00:48.935Z,60828.56
2023-10-06T01:03:17.795Z,60829.50
2023-10-06T01:05:47.564Z,60832.66
2023-10-06T01:08:17.488Z,60828.00
2023-10-06T01:10:46.110Z,60824.75
2023-10-06T01:13:15.445Z,60826.09
2023-10-06T01:15:50.525Z,60817.53
2023-10-06T01:18:24.734Z,60810.59
2023-10-06T01:20:53.132Z,60802.97
2023-10-06T01:23:23.400Z,60797.53
2023-10-06T01:25:55.477Z,60796.31
2023-10-06T01:28:24.618Z,60795.06
2023-10-06T01:30:53.514Z,60794.38
2023-10-06T01:33:22.168Z,60789.63
2023-10-06T01:35:50.808Z,60786.91
2023-10-06T01:38:23.675Z,60785.28
2023-10-06T01:40:55.180Z,60780.13
2023-10-06T01:43:25.581Z,60782.00
2023-10-06T01:45:54.256Z,60777.78
2023-10-06T01:48:25.313Z,60780.38
2023-10-06T01:50:55.713Z,60766.78
2023-10-06T01:53:26.155Z,60776.56
2023-10-06T01:55:56.276Z,60774.66
2023-10-06T01:58:24.649Z,60774.66
2023-10-06T02:00:53.021Z,60778.75
2023-10-06T02:03:23.170Z,60779.28
2023-10-06T02:05:55.895Z,60783.09
2023-10-06T02:08:24.883Z,60785.28
2023-10-06T02:10:53.283Z,60782.69
2023-10-06T02:13:23.386Z,60786.34
2023-10-06T02:15:57.841Z,60789.09
2023-10-06T02:18:36.636Z,60792.22
2023-10-06T02:21:11.701Z,60791.81
2023-10-06T02:23:41.624Z,60792.88
2023-10-06T02:26:13.488Z,60791.00
2023-10-06T02:28:49.370Z,60799.41
2023-10-06T02:31:22.586Z,60796.97
2023-10-06T02:33:52.579Z,60800.66
2023-10-06T02:36:22.659Z,60803.50
2023-10-06T02:38:52.084Z,60804.06
2023-10-06T02:41:22.583Z,60811.41
2023-10-06T02:43:54.028Z,60812.50
2023-10-06T02:46:24.662Z,60813.59
2023-10-06T02:48:53.509Z,60813.59
2023-10-06T02:51:30.061Z,60811.00
2023-10-06T02:54:12.126Z,60817.25
2023-10-06T02:56:41.567Z,60810.59
2023-10-06T02:59:21.654Z,60814.25
2023-10-06T03:01:53.690Z,60819.03
2023-10-06T03:04:26.465Z,60822.28
2023-10-06T03:06:56.860Z,60824.47
2023-10-06T03:09:37.210Z,60819.47
2023-10-06T03:12:12.938Z,60829.38
2023-10-06T03:14:42.787Z,60828.56
2023-10-06T03:17:14.045Z,60834.25
2023-10-06T03:19:42.874Z,60832.38
2023-10-06T03:22:13.681Z,60835.09
2023-10-06T03:24:54.207Z,60837.41
2023-10-06T03:27:24.777Z,60838.91
2023-10-06T03:29:56.803Z,60841.63
2023-10-06T03:32:33.785Z,60845.84
2023-10-06T03:35:15.375Z,60851.69
2023-10-06T03:37:53.355Z,60844.50
2023-10-06T03:40:25.206Z,60850.59
2023-10-06T03:42:54.932Z,60847.63
2023-10-06T03:45:32.698Z,60853.47
2023-10-06T03:48:12.052Z,60861.22
2023-10-06T03:50:44.203Z,60856.06
2023-10-06T03:53:16.031Z,60849.81
2023-10-06T03:55:46.738Z,60854.56
2023-10-06T03:58:17.776Z,60852.53
2023-10-06T04:00:50.952Z,60854.56
2023-10-06T04:03:20.546Z,60857.28
2023-10-06T04:05:50.577Z,60854.16
2023-10-06T04:08:22.155Z,60856.34
2023-10-06T04:10:54.578Z,60857.84
2023-10-06T04:13:24.199Z,60855.25
2023-10-06T04:15:54.882Z,60856.34
2023-10-06T04:18:25.018Z,60856.88
2023-10-06T04:20:54.896Z,60862.06
2023-10-06T04:23:24.952Z,60858.25
2023-10-06T04:25:56.414Z,60857.13
2023-10-06T04:28:26.680Z,60849.81
2023-10-06T04:30:59.447Z,60848.72
2023-10-06T04:33:29.849Z,60850.22
2023-10-06T04:36:01.118Z,60849.09
2023-10-06T04:38:30.597Z,60852.78
2023-10-06T04:40:59.343Z,60848.72
2023-10-06T04:43:27.888Z,60856.47
2023-10-06T04:45:57.807Z,60848.72
2023-10-06T04:48:26.268Z,60852.94
2023-10-06T04:50:56.870Z,60847.63
2023-10-06T04:53:25.252Z,60850.22
2023-10-06T04:55:53.808Z,60851.28
2023-10-06T04:58:22.153Z,60849.09
2023-10-06T05:00:54.401Z,60849.81
2023-10-06T05:03:24.147Z,60852.78
2023-10-06T05:05:56.803Z,60842.84
2023-10-06T05:08:25.837Z,60850.59
2023-10-06T05:10:57.098Z,60843.28
2023-10-06T05:13:27.855Z,60847.88
2023-10-06T05:15:56.452Z,60847.34
2023-10-06T05:18:26.506Z,60845.72
2023-10-06T05:20:54.933Z,60836.75
2023-10-06T05:23:23.380Z,60842.72
2023-10-06T05:25:51.721Z,60836.31
2023-10-06T05:28:21.826Z,60842.97
2023-10-06T05:30:50.240Z,60836.19
2023-10-06T05:33:18.741Z,60836.75
2023-10-06T05:35:49.467Z,60834.53
2023-10-06T05:38:17.904Z,60839.72
2023-10-06T05:40:47.573Z,60842.28
2023-10-06T05:43:17.373Z,60835.66
2023-10-06T05:45:46.357Z,60835.66
2023-10-06T05:48:17.195Z,60836.75
2023-10-06T05:50:47.082Z,60841.09
2023-10-06T05:53:21.063Z,60838.91
2023-10-06T05:55:50.920Z,60845.16
2023-10-06T05:58:20.892Z,60845.72
2023-10-06T06:00:56.647Z,60847.22
2023-10-06T06:03:25.940Z,60838.91
2023-10-06T06:05:58.734Z,60838.91
2023-10-06T06:08:31.330Z,60848.28
2023-10-06T06:11:01.113Z,60845.31
2023-10-06T06:13:29.471Z,60844.75
2023-10-06T06:15:57.825Z,60851.53
2023-10-06T06:18:28.594Z,60848.72
2023-10-06T06:20:56.988Z,60850.88
2023-10-06T06:23:25.691Z,60858.38
2023-10-06T06:25:55.823Z,60854.16
2023-10-06T06:28:24.141Z,60854.84
2023-10-06T06:30:52.433Z,60866.56
2023-10-06T06:33:23.544Z,60873.50
2023-10-06T06:35:51.883Z,60875.84
2023-10-06T06:38:20.293Z,60875.00
2023-10-06T06:40:49.279Z,60892.03
2023-10-06T06:43:21.247Z,60891.63
2023-10-06T06:45:49.858Z,60898.16
2023-10-06T06:48:20.991Z,60899.25
2023-10-06T06:50:49.695Z,60897.34
2023-10-06T06:53:19.895Z,60907.28
2023-10-06T06:55:48.539Z,60903.06
2023-10-06T06:58:18.054Z,60911.66
2023-10-06T07:00:49.044Z,60907.97
2023-10-06T07:03:18.313Z,60903.19
2023-10-06T07:05:46.665Z,60914.94
2023-10-06T07:08:16.338Z,60917.78
2023-10-06T07:10:48.468Z,60923.63
2023-10-06T07:13:17.091Z,60923.22
2023-10-06T07:15:46.929Z,60930.16
2023-10-06T07:18:15.916Z,60927.72
2023-10-06T07:20:45.458Z,60937.25
2023-10-06T07:23:14.088Z,60930.72
2023-10-06T07:25:42.447Z,60946.00
2023-10-06T07:28:13.479Z,60941.34
2023-10-06T07:30:42.264Z,60940.28
2023-10-06T07:33:11.934Z,60949.25
2023-10-06T07:35:43.270Z,60945.72
2023-10-06T07:38:13.327Z,60954.16
2023-10-06T07:40:43.460Z,60946.81
2023-10-06T07:43:13.851Z,60951.03
2023-10-06T07:45:42.610Z,60949.69
2023-10-06T07:48:12.453Z,60960.72
2023-10-06T07:50:40.846Z,60958.81
2023-10-06T07:53:10.689Z,60965.47
2023-10-06T07:55:39.066Z,60974.34
2023-10-06T07:58:09.493Z,60976.09
2023-10-06T08:00:43.102Z,60979.09
2023-10-06T08:03:13.973Z,60980.63
2023-10-06T08:05:42.370Z,60983.47
2023-10-06T08:08:10.710Z,60989.34
2023-10-06T08:10:39.289Z,61000.22
2023-10-06T08:13:09.061Z,61011.16
2023-10-06T08:15:41.834Z,61022.34
2023-10-06T08:18:10.407Z,61034.91
2023-10-06T08:20:41.285Z,61028.22
2023-10-06T08:23:09.798Z,61041.72
2023-10-06T08:25:56.929Z,61042.69
2023-10-06T08:28:27.520Z,61043.22
2023-10-06T08:30:56.056Z,61034.75
2023-10-06T08:33:28.838Z,61041.03
2023-10-06T08:36:01.718Z,61045.00
2023-10-06T08:38:31.418Z,61064.91
2023-10-06T08:41:04.155Z,61065.72
2023-10-06T08:43:33.701Z,61075.41
2023-10-06T08:46:03.691Z,61081.00
2023-10-06T08:48:33.116Z,61082.25
2023-10-06T08:51:08.561Z,61089.22
2023-10-06T08:53:39.317Z,61094.66
2023-10-06T08:56:08.174Z,61102.84
2023-10-06T08:58:37.359Z,61111.16
2023-10-06T09:01:07.329Z,61113.47
2023-10-06T09:03:40.255Z,61108.44
2023-10-06T09:06:12.792Z,61112.00
2023-10-06T09:08:42.831Z,61121.94
2023-10-06T09:11:13.108Z,61113.75
2023-10-06T09:13:43.154Z,61121.41
2023-10-06T09:16:13.063Z,61130.41
2023-10-06T09:18:42.520Z,61118.41
2023-10-06T09:21:19.455Z,61135.88
2023-10-06T09:23:49.026Z,61136.69
2023-10-06T09:26:28.973Z,61142.16
2023-10-06T09:29:02.480Z,61145.44
2023-10-06T09:31:38.873Z,61158.56
2023-10-06T09:34:10.750Z,61157.59
2023-10-06T09:36:45.752Z,61163.63
2023-10-06T09:39:27.134Z,61173.84
2023-10-06T09:41:56.455Z,61181.09
2023-10-06T09:44:25.635Z,61188.59
2023-10-06T09:46:55.283Z,61197.22
2023-10-06T09:49:24.263Z,61191.59
2023-10-06T09:51:54.836Z,61201.16
2023-10-06T09:54:23.649Z,61204.03
2023-10-06T09:56:56.478Z,61221.78
2023-10-06T09:59:27.596Z,61229.97
2023-10-06T10:01:58.315Z,61231.75
2023-10-06T10:04:31.519Z,61243.38
2023-10-06T10:07:04.102Z,61248.16
2023-10-06T10:09:36.085Z,61245.56
2023-10-06T10:12:21.625Z,61249.66
2023-10-06T10:15:02.047Z,61246.66
2023-10-06T10:17:39.785Z,61247.19
2023-10-06T10:20:10.870Z,61258.81
2023-10-06T10:22:42.802Z,61253.63
2023-10-06T10:28:18.129Z,61268.94
2023-10-06T10:30:51.589Z,61266.59
2023-10-06T10:33:22.508Z,61263.06
2023-10-06T10:36:21.081Z,61270.56
2023-10-06T10:39:10.433Z,61270.56
2023-10-06T10:41:41.575Z,61267.44
2023-10-06T10:44:25.494Z,61267.81
2023-10-06T10:46:57.919Z,61266.75
2023-10-06T10:49:34.013Z,61272.78
2023-10-06T10:52:03.943Z,61270.56
2023-10-06T10:54:35.880Z,61268.94
2023-10-06T10:57:07.594Z,61272.22
2023-10-06T11:00:13.663Z,61270.31
2023-10-06T11:02:44.606Z,61276.59
2023-10-06T11:05:13.361Z,61282.59
2023-10-06T11:07:43.217Z,61284.25
2023-10-06T11:10:14.399Z,61295.19
2023-10-06T11:12:42.866Z,61289.31
2023-10-06T11:15:17.248Z,61296.53
2023-10-06T11:17:46.531Z,61306.56
2023-10-06T11:20:17.193Z,61318.97
2023-10-06T11:22:56.659Z,61313.09
2023-10-06T11:25:29.354Z,61317.06
2023-10-06T11:27:59.088Z,61322.13
2023-10-06T11:30:30.164Z,61323.91
2023-10-06T11:32:59.193Z,61333.75
2023-10-06T11:35:27.638Z,61343.31
2023-10-06T11:37:56.859Z,61349.19
2023-10-06T11:40:27.426Z,61346.72
2023-10-06T11:42:55.823Z,61342.34
2023-10-06T11:45:27.408Z,61352.91
2023-10-06T11:47:56.538Z,61361.38
2023-10-06T11:50:26.907Z,61380.09
2023-10-06T11:52:56.398Z,61403.94
2023-10-06T11:55:29.701Z,61405.44
2023-10-06T11:57:59.602Z,61412.03
2023-10-06T12:00:41.781Z,61416.25
2023-10-06T12:03:12.891Z,61420.38
2023-10-06T12:05:44.983Z,61415.56
2023-10-06T12:08:15.436Z,61406.94
2023-10-06T12:10:52.943Z,61417.78
2023-10-06T12:13:21.704Z,61410.09
2023-10-06T12:15:50.066Z,61407.91
2023-10-06T12:18:18.634Z,61399.28
2023-10-06T12:20:46.952Z,61402.00
2023-10-06T12:23:15.480Z,61396.41
2023-10-06T12:25:43.887Z,61395.31
2023-10-06T12:28:17.566Z,61390.41
2023-10-06T12:30:46.257Z,61379.56
2023-10-06T12:33:14.968Z,61379.69
2023-10-06T12:35:43.953Z,61370.94
2023-10-06T12:38:15.763Z,61378.34
2023-10-06T12:40:48.109Z,61370.66
2023-10-06T12:43:20.409Z,61365.63
2023-10-06T12:45:48.765Z,61365.19
2023-10-06T12:48:17.346Z,61360.28
2023-10-06T12:50:45.806Z,61363.00
2023-10-06T12:53:14.298Z,61363.00
2023-10-06T12:55:44.342Z,61362.47
2023-10-06T12:58:16.140Z,61363.44
2023-10-06T13:00:45.980Z,61355.06
2023-10-06T13:03:18.127Z,61363.00
2023-10-06T13:05:50.541Z,61359.59
2023-10-06T13:08:26.578Z,61362.31
2023-10-06T13:10:55.995Z,61362.31
2023-10-06T13:13:25.015Z,61361.94
2023-10-06T13:15:55.108Z,61358.38
2023-10-06T13:18:23.593Z,61356.03
2023-10-06T13:20:53.545Z,61363.56
2023-10-06T13:23:27.762Z,61369.31
2023-10-06T13:25:59.416Z,61364.78
2023-10-06T13:28:29.379Z,61362.84
2023-10-06T13:30:59.271Z,61363.00
2023-10-06T13:33:27.814Z,61361.66
2023-10-06T13:35:56.275Z,61344.00
2023-10-06T13:38:26.768Z,61321.16
2023-10-06T13:40:55.726Z,61307.47
2023-10-06T13:43:24.330Z,61294.22
2023-10-06T13:45:54.477Z,61277.56
2023-10-06T13:48:27.459Z,61277.44
2023-10-06T13:50:59.250Z,61267.16
2023-10-06T13:53:27.959Z,61267.69
2023-10-06T13:55:57.425Z,61261.81
2023-10-06T13:58:25.986Z,61253.50
2023-10-06T14:00:57.265Z,61245.97
2023-10-06T14:03:28.049Z,61246.94
2023-10-06T14:05:57.305Z,61234.50
2023-10-06T14:08:26.456Z,61231.06
2023-10-06T14:10:55.072Z,61219.47
2023-10-06T14:13:26.387Z,61220.28
2023-10-06T14:16:10.213Z,61213.59
2023-10-06T14:18:41.537Z,61211.41
2023-10-06T14:21:12.655Z,61204.84
2023-10-06T14:23:45.216Z,61197.47
2023-10-06T14:26:14.164Z,61203.75
2023-10-06T14:28:43.209Z,61206.78
2023-10-06T14:31:21.287Z,61211.00
2023-10-06T14:33:59.147Z,61212.63
2023-10-06T14:36:29.470Z,61212.50
2023-10-06T14:39:15.265Z,61204.44
2023-10-06T14:42:01.048Z,61196.09
2023-10-06T14:44:46.796Z,61187.50
2023-10-06T14:47:15.399Z,61182.56
2023-10-06T14:49:45.752Z,61177.81
2023-10-06T14:52:14.772Z,61180.97
2023-10-06T14:54:44.941Z,61181.50
2023-10-06T14:57:14.156Z,61181.50
2023-10-06T14:59:45.347Z,61180.25
2023-10-06T15:02:14.050Z,61185.19
2023-10-06T15:04:42.912Z,61186.41
2023-10-06T15:07:15.851Z,61190.78
2023-10-06T15:09:45.137Z,61191.31
2023-10-06T15:12:15.732Z,61188.88
2023-10-06T15:14:45.819Z,61185.72
2023-10-06T15:17:15.592Z,61193.50
2023-10-06T15:19:47.559Z,61192.41
2023-10-06T15:22:17.735Z,61195.69
2023-10-06T15:24:46.103Z,61196.25
2023-10-06T15:27:14.533Z,61200.47
2023-10-06T15:29:43.623Z,61199.66
2023-10-06T15:32:12.914Z,61198.16
2023-10-06T15:34:41.941Z,61214.00
2023-10-06T15:37:10.408Z,61213.19
2023-10-06T15:39:40.131Z,61207.72
2023-10-06T15:42:11.052Z,61206.63
2023-10-06T15:44:39.592Z,61211.53
2023-10-06T15:47:08.877Z,61205.00
2023-10-06T15:49:38.809Z,61207.59
2023-10-06T15:52:09.001Z,61209.63
2023-10-06T15:54:41.167Z,61202.41
2023-10-06T15:57:11.034Z,61200.06
2023-10-06T15:59:40.067Z,61202.25
2023-10-06T16:02:11.085Z,61203.22
2023-10-06T16:04:40.262Z,61205.94
2023-10-06T16:07:09.717Z,61201.16
2023-10-06T16:09:38.100Z,61204.28
2023-10-06T16:12:07.842Z,61198.97
2023-10-06T16:14:38.533Z,61201.97
2023-10-06T16:17:07.000Z,61196.78
2023-10-06T16:19:37.636Z,61204.44
2023-10-06T16:22:08.862Z,61201.31
2023-10-06T16:24:37.353Z,61199.66
2023-10-06T16:27:06.994Z,61202.25
2023-10-06T16:29:36.895Z,61200.19
2023-10-06T16:32:05.564Z,61201.16
2023-10-06T16:34:33.984Z,61204.16
2023-10-06T16:37:02.681Z,61201.56
2023-10-06T16:39:31.990Z,61199.53
2023-10-06T16:42:00.437Z,61200.06
2023-10-06T16:44:28.813Z,61199.53
2023-10-06T16:46:58.512Z,61195.84
2023-10-06T16:49:29.103Z,61197.06
2023-10-06T16:51:57.649Z,61202.25
2023-10-06T16:54:33.986Z,61207.72
2023-10-06T16:57:02.850Z,61211.00
2023-10-06T16:59:31.492Z,61223.28
2023-10-06T17:02:01.460Z,61221.91
2023-10-06T17:04:30.556Z,61230.66
2023-10-06T17:06:59.182Z,61239.41
2023-10-06T17:09:37.502Z,61229.84
2023-10-06T17:12:08.826Z,61228.34
2023-10-06T17:14:37.406Z,61237.38
2023-10-06T17:17:07.466Z,61239.97
2023-10-06T17:19:39.004Z,61237.78
2023-10-06T17:22:18.149Z,61249.81
2023-10-06T17:24:53.227Z,61249.81
2023-10-06T17:27:24.772Z,61249.81
2023-10-06T17:29:56.698Z,61253.63
2023-10-06T17:32:27.917Z,61249.81
2023-10-06T17:34:56.620Z,61250.91
2023-10-06T17:37:30.704Z,61250.59
2023-10-06T17:39:59.433Z,61252.81
2023-10-06T17:42:31.949Z,61258.41
2023-10-06T17:45:03.521Z,61258.53
2023-10-06T17:47:33.803Z,61262.34
2023-10-06T17:50:02.935Z,61258.53
2023-10-06T17:52:31.833Z,61262.22
2023-10-06T17:55:03.322Z,61261.81
2023-10-06T17:57:36.320Z,61259.63
2023-10-06T18:00:10.914Z,61267.16
2023-10-06T18:02:41.106Z,61263.75
2023-10-06T18:05:10.319Z,61278.38
2023-10-06T18:07:39.365Z,61274.97
2023-10-06T18:10:10.046Z,61278.13
2023-10-06T18:12:38.841Z,61268.94
2023-10-06T18:15:09.433Z,61270.72
2023-10-06T18:17:38.425Z,61276.59
2023-10-06T18:20:10.441Z,61276.19
2023-10-06T18:22:38.973Z,61276.19
2023-10-06T18:25:08.838Z,61277.28
2023-10-06T18:27:37.850Z,61278.50
2023-10-06T18:30:10.202Z,61274.81
2023-10-06T18:32:38.732Z,61275.50
2023-10-06T18:35:09.040Z,61274.28
2023-10-06T18:37:39.451Z,61273.88
2023-10-06T18:40:14.460Z,61271.13
2023-10-06T18:42:43.282Z,61277.13
2023-10-06T18:45:12.620Z,61273.31
2023-10-06T18:47:41.929Z,61270.03
2023-10-06T18:50:18.913Z,61265.22
2023-10-06T18:52:48.142Z,61268.25
2023-10-06T18:55:18.659Z,61267.81
2023-10-06T18:57:47.378Z,61263.06
2023-10-06T19:00:16.839Z,61254.28
2023-10-06T19:02:46.939Z,61252.13
2023-10-06T19:05:16.967Z,61248.72
2023-10-06T19:07:45.354Z,61262.09
2023-10-06T19:10:15.378Z,61256.09
2023-10-06T19:12:46.671Z,61243.91
2023-10-06T19:15:15.452Z,61239.00
2023-10-06T19:17:43.852Z,61248.16
2023-10-06T19:20:14.208Z,61251.44
2023-10-06T19:22:44.424Z,61254.16
2023-10-06T19:25:15.225Z,61251.03
2023-10-06T19:27:46.724Z,61252.53
2023-10-06T19:30:17.396Z,61262.34
2023-10-06T19:32:46.545Z,61256.34
2023-10-06T19:35:16.359Z,61252.81
2023-10-06T19:37:46.651Z,61252.66
2023-10-06T19:40:15.325Z,61247.59
2023-10-06T19:42:44.318Z,61260.19
2023-10-06T19:45:12.752Z,61265.50
2023-10-06T19:47:41.244Z,61263.06
2023-10-06T19:50:13.732Z,61261.81
2023-10-06T19:52:42.589Z,61260.88
2023-10-06T19:55:12.481Z,61261.00
2023-10-06T19:57:40.939Z,61274.13
2023-10-06T20:00:12.349Z,61275.22
2023-10-06T20:02:42.507Z,61273.44
2023-10-06T20:05:14.166Z,61275.22
2023-10-06T20:07:42.701Z,61273.72
2023-10-06T20:10:16.537Z,61273.44
2023-10-06T20:12:44.981Z,61278.78
2023-10-06T20:15:14.037Z,61279.06
2023-10-06T20:17:42.500Z,61276.88
2023-10-06T20:20:12.576Z,61273.06
2023-10-06T20:22:41.057Z,61276.88
2023-10-06T20:25:12.112Z,61283.16
2023-10-06T20:27:47.512Z,61287.53
2023-10-06T20:30:17.335Z,61296.69
2023-10-06T20:32:46.791Z,61286.31
2023-10-06T20:35:15.378Z,61307.78
2023-10-06T20:37:44.294Z,61301.34
2023-10-06T20:40:17.312Z,61313.50
2023-10-06T20:42:47.113Z,61312.56
2023-10-06T20:45:16.945Z,61314.75
2023-10-06T20:47:46.100Z,61328.53
2023-10-06T20:50:14.654Z,61331.28
2023-10-06T20:52:43.951Z,61329.66
2023-10-06T20:55:12.780Z,61331.28
2023-10-06T20:57:41.167Z,61341.25
2023-10-06T21:00:11.992Z,61342.22
2023-10-06T21:02:40.726Z,61339.47
2023-10-06T21:05:10.795Z,61338.66
2023-10-06T21:07:39.860Z,61348.66
2023-10-06T21:10:09.636Z,61338.41
2023-10-06T21:12:38.729Z,61348.38
2023-10-06T21:15:12.257Z,61349.34
2023-10-06T21:17:44.144Z,61356.84
2023-10-06T21:20:16.423Z,61360.84
2023-10-06T21:22:45.363Z,61365.19
2023-10-06T21:25:15.181Z,61357.81
2023-10-06T21:27:43.695Z,61354.94
2023-10-06T21:30:16.694Z,61358.63
2023-10-06T21:32:47.297Z,61348.81
2023-10-06T21:35:16.235Z,61342.47
2023-10-06T21:37:45.962Z,61343.19
2023-10-06T21:40:14.822Z,61352.50
2023-10-06T21:42:43.188Z,61346.06
2023-10-06T21:45:12.407Z,61345.94
2023-10-06T21:47:40.791Z,61335.25
2023-10-06T21:50:11.386Z,61330.47
2023-10-06T21:52:41.779Z,61335.66
2023-10-06T21:55:12.098Z,61335.13
2023-10-06T21:57:40.651Z,61336.75
2023-10-06T22:00:26.201Z,61323.91
2023-10-06T22:02:56.055Z,61327.19
2023-10-06T22:05:25.943Z,61344.41
2023-10-06T22:07:54.384Z,61329.78
2023-10-06T22:10:25.394Z,61317.34
2023-10-06T22:12:54.477Z,61319.66
2023-10-06T22:15:22.950Z,61314.34
2023-10-06T22:17:51.317Z,61319.66
2023-10-06T22:20:21.162Z,61311.19
2023-10-06T22:22:51.821Z,61313.09
2023-10-06T22:25:20.771Z,61303.38
2023-10-06T22:27:49.191Z,61309.28
2023-10-06T22:30:18.859Z,61303.94
2023-10-06T22:32:47.732Z,61299.16
2023-10-06T22:35:17.493Z,61302.31
2023-10-06T22:37:46.948Z,61312.69
2023-10-06T22:40:18.706Z,61298.75
2023-10-06T22:42:48.923Z,61314.88
2023-10-06T22:45:20.340Z,61306.13
2023-10-06T22:47:50.172Z,61306.13
2023-10-06T22:50:20.691Z,61295.47
2023-10-06T22:52:50.511Z,61305.31
2023-10-06T22:55:20.742Z,61314.63
2023-10-06T22:57:49.685Z,61310.50
2023-10-06T23:00:19.149Z,61298.63
2023-10-06T23:02:49.170Z,61299.16
2023-10-06T23:05:17.848Z,61306.94
2023-10-06T23:07:48.239Z,61297.63
2023-10-06T23:10:19.249Z,61308.31
2023-10-06T23:12:50.593Z,61295.47
2023-10-06T23:15:19.429Z,61297.63
2023-10-06T23:17:47.998Z,61304.47
2023-10-06T23:20:25.326Z,61302.84
2023-10-06T23:22:59.197Z,61307.91
2023-10-06T23:25:37.597Z,61305.72
2023-10-06T23:28:08.567Z,61315.72
2023-10-06T23:30:37.988Z,61317.63
2023-10-06T23:33:07.081Z,61309.41
2023-10-06T23:35:36.099Z,61302.44
2023-10-06T23:38:07.851Z,61305.03
2023-10-06T23:40:39.455Z,61302.84
2023-10-06T23:43:10.135Z,61304.09
2023-10-06T23:45:39.026Z,61305.03
2023-10-06T23:48:12.534Z,61305.44
2023-10-06T23:50:52.702Z,61308.16
2023-10-06T23:53:24.089Z,61311.47
2023-10-06T23:55:54.283Z,61305.16
2023-10-06T23:58:24.298Z,61303.94
